Time;durP1;ratioP1;P1;durP2;ratioP2;P2;SDS_P1;SDS_P2;PMS_P1;PMS_P2;Temp;Humidity;BMP_temperature;BMP_pressure;BME280_temperature;BME280_humidity;BME280_pressure;Samples;Min_cycle;Max_cycle;Signal;HPM_P1;HPM_P2
2021/04/07 00:01:57;;;;;;;4.05;2.50;;;;;;;;;;5093672;28;20629;-64
2021/04/07 00:04:24;;;;;;;5.68;3.00;;;;;;;;;;5093691;28;20227;-65
2021/04/07 00:06:53;;;;;;;2.67;2.30;;;;;;;;;;5093369;28;20744;-64
2021/04/07 00:09:20;;;;;;;3.20;2.13;;;;;;;;;;5095626;28;20219;-64
2021/04/07 00:11:47;;;;;;;5.53;2.72;;;;;;;;;;5105540;28;20183;-64
2021/04/07 00:14:13;;;;;;;3.78;3.05;;;;;;;;;;5095320;28;20668;-64
2021/04/07 00:16:40;;;;;;;7.20;2.45;;;;;;;;;;5093745;28;20495;-63
2021/04/07 00:19:07;;;;;;;3.10;2.50;;;;;;;;;;5093613;28;20650;-61
2021/04/07 00:21:34;;;;;;;4.65;2.30;;;;;;;;;;5093147;28;20634;-63
2021/04/07 00:24:02;;;;;;;3.20;2.00;;;;;;;;;;5096462;28;20208;-62
2021/04/07 00:26:29;;;;;;;6.45;2.13;;;;;;;;;;5097548;28;20616;-64
2021/04/07 00:28:56;;;;;;;3.40;2.70;;;;;;;;;;5098059;28;20215;-63
2021/04/07 00:31:22;;;;;;;2.63;1.90;;;;;;;;;;5097758;28;20208;-63
2021/04/07 00:33:49;;;;;;;2.65;2.30;;;;;;;;;;5098003;28;20207;-64
2021/04/07 00:36:16;;;;;;;4.88;2.22;;;;;;;;;;5097619;28;20565;-63
2021/04/07 00:38:42;;;;;;;6.40;3.13;;;;;;;;;;5097260;28;20682;-62
2021/04/07 00:41:11;;;;;;;5.22;2.50;;;;;;;;;;5097076;28;20629;-63
2021/04/07 00:43:38;;;;;;;3.55;2.28;;;;;;;;;;5097145;28;20199;-62
2021/04/07 00:46:04;;;;;;;4.95;2.50;;;;;;;;;;5097396;28;20219;-63
2021/04/07 00:48:31;;;;;;;3.45;1.90;;;;;;;;;;5097077;28;20219;-63
2021/04/07 00:50:58;;;;;;;5.03;2.30;;;;;;;;;;5097473;28;20198;-63
2021/04/07 00:53:25;;;;;;;4.15;2.38;;;;;;;;;;5097127;28;20231;-62
2021/04/07 00:55:52;;;;;;;7.68;2.05;;;;;;;;;;5097112;28;20276;-63
2021/04/07 00:58:19;;;;;;;4.18;2.42;;;;;;;;;;5096898;28;20207;-62
2021/04/07 01:00:46;;;;;;;7.68;2.70;;;;;;;;;;5096872;28;20248;-64
2021/04/07 01:03:14;;;;;;;4.40;2.65;;;;;;;;;;5096902;28;20208;-63
2021/04/07 01:05:41;;;;;;;5.15;3.13;;;;;;;;;;5096639;28;20225;-63
2021/04/07 01:08:08;;;;;;;5.07;2.70;;;;;;;;;;5096675;28;20200;-62
2021/04/07 01:10:34;;;;;;;6.55;2.42;;;;;;;;;;5096865;28;20202;-63
2021/04/07 01:13:01;;;;;;;7.15;2.50;;;;;;;;;;5096917;28;20200;-63
2021/04/07 01:15:29;;;;;;;5.90;2.42;;;;;;;;;;5097044;28;20641;-64
2021/04/07 01:17:56;;;;;;;8.82;2.67;;;;;;;;;;5096978;28;20202;-63
2021/04/07 01:20:23;;;;;;;4.25;2.67;;;;;;;;;;5096601;28;20207;-63
2021/04/07 01:22:52;;;;;;;4.30;2.15;;;;;;;;;;5096656;28;20202;-63
2021/04/07 01:25:20;;;;;;;4.25;2.40;;;;;;;;;;5096422;28;20228;-63
2021/04/07 01:27:46;;;;;;;4.75;2.20;;;;;;;;;;5095967;28;20197;-63
2021/04/07 01:30:15;;;;;;;5.85;2.53;;;;;;;;;;5096395;28;20211;-63
2021/04/07 01:32:41;;;;;;;4.75;2.65;;;;;;;;;;5096382;28;20208;-63
2021/04/07 01:35:10;;;;;;;5.65;2.85;;;;;;;;;;5095419;28;20222;-62
2021/04/07 01:37:37;;;;;;;5.30;1.73;;;;;;;;;;5095798;28;20621;-63
2021/04/07 01:40:05;;;;;;;8.55;2.95;;;;;;;;;;5096227;28;20253;-63
2021/04/07 01:42:33;;;;;;;2.63;2.40;;;;;;;;;;5096416;28;20216;-63
2021/04/07 01:45:00;;;;;;;4.38;2.15;;;;;;;;;;5095942;28;20718;-63
2021/04/07 01:47:28;;;;;;;6.70;2.85;;;;;;;;;;5096245;28;20202;-62
2021/04/07 01:49:55;;;;;;;4.35;1.90;;;;;;;;;;5096215;28;20226;-63
2021/04/07 01:52:21;;;;;;;5.55;2.50;;;;;;;;;;5096158;28;20212;-63
2021/04/07 01:54:48;;;;;;;6.38;2.63;;;;;;;;;;5095777;28;20237;-63
2021/04/07 01:57:15;;;;;;;8.02;2.95;;;;;;;;;;5096310;28;20199;-62
2021/04/07 01:59:42;;;;;;;5.65;2.35;;;;;;;;;;5095766;28;20205;-63
2021/04/07 02:02:09;;;;;;;4.28;2.28;;;;;;;;;;5096132;28;20206;-63
2021/04/07 02:04:36;;;;;;;6.70;2.50;;;;;;;;;;5096280;28;20229;-63
2021/04/07 02:07:09;;;;;;;5.00;2.78;;;;;;;;;;5095726;28;20261;-63
2021/04/07 02:09:35;;;;;;;8.27;3.42;;;;;;;;;;5095879;28;20208;-63
2021/04/07 02:12:02;;;;;;;6.75;2.92;;;;;;;;;;5095882;28;20209;-62
2021/04/07 02:14:29;;;;;;;5.38;2.15;;;;;;;;;;5095952;28;20224;-64
2021/04/07 02:16:57;;;;;;;8.48;2.65;;;;;;;;;;5095566;28;20206;-63
2021/04/07 02:19:24;;;;;;;6.80;3.13;;;;;;;;;;5095503;28;20572;-63
2021/04/07 02:21:53;;;;;;;6.82;2.42;;;;;;;;;;5095112;28;20214;-62
2021/04/07 02:24:20;;;;;;;4.45;2.42;;;;;;;;;;5094974;28;20220;-62
2021/04/07 02:26:47;;;;;;;6.93;2.90;;;;;;;;;;5095176;28;20331;-63
2021/04/07 02:29:14;;;;;;;5.20;2.90;;;;;;;;;;5095066;28;20219;-62
2021/04/07 02:31:40;;;;;;;8.57;3.60;;;;;;;;;;5095049;28;20197;-63
2021/04/07 02:34:08;;;;;;;6.75;2.35;;;;;;;;;;5095327;28;20246;-61
2021/04/07 02:36:35;;;;;;;7.55;3.10;;;;;;;;;;5094926;28;20664;-63
2021/04/07 02:39:01;;;;;;;8.63;2.78;;;;;;;;;;5094859;28;20206;-63
2021/04/07 02:41:28;;;;;;;12.38;3.17;;;;;;;;;;5097860;28;20207;-64
2021/04/07 02:43:55;;;;;;;6.28;2.67;;;;;;;;;;5101125;28;20797;-63
2021/04/07 02:46:22;;;;;;;6.00;3.30;;;;;;;;;;5095481;28;20224;-63
2021/04/07 02:48:48;;;;;;;7.57;3.45;;;;;;;;;;5094764;28;20217;-63
2021/04/07 02:51:16;;;;;;;5.45;3.30;;;;;;;;;;5094497;28;20200;-62
2021/04/07 02:53:43;;;;;;;8.63;2.90;;;;;;;;;;5094453;28;20211;-63
2021/04/07 02:56:10;;;;;;;5.03;3.47;;;;;;;;;;5094557;28;20223;-63
2021/04/07 02:58:36;;;;;;;10.35;3.65;;;;;;;;;;5094442;28;20197;-63
2021/04/07 03:01:03;;;;;;;8.10;3.22;;;;;;;;;;5094777;28;20251;-63
2021/04/07 03:03:30;;;;;;;6.22;3.38;;;;;;;;;;5094683;28;20257;-63
2021/04/07 03:05:57;;;;;;;11.80;3.42;;;;;;;;;;5094495;28;20236;-63
2021/04/07 03:08:24;;;;;;;6.45;3.47;;;;;;;;;;5094715;28;20737;-63
2021/04/07 03:10:51;;;;;;;6.25;3.47;;;;;;;;;;5094634;28;20221;-64
2021/04/07 03:13:18;;;;;;;4.07;2.70;;;;;;;;;;5094484;28;20202;-63
2021/04/07 03:15:44;;;;;;;5.47;3.15;;;;;;;;;;5094092;28;20605;-64
2021/04/07 03:18:11;;;;;;;5.72;2.83;;;;;;;;;;5094313;28;20198;-63
2021/04/07 03:20:38;;;;;;;7.45;3.55;;;;;;;;;;5095134;28;20595;-63
2021/04/07 03:23:05;;;;;;;8.32;3.20;;;;;;;;;;5094023;28;20254;-64
2021/04/07 03:25:32;;;;;;;13.20;4.20;;;;;;;;;;5094123;28;20288;-63
2021/04/07 03:27:59;;;;;;;9.70;3.70;;;;;;;;;;5094063;28;20273;-64
2021/04/07 03:30:26;;;;;;;12.27;4.45;;;;;;;;;;5094485;28;20656;-63
2021/04/07 03:32:52;;;;;;;9.57;4.07;;;;;;;;;;5096595;28;20556;-62
2021/04/07 03:35:19;;;;;;;7.68;3.65;;;;;;;;;;5094445;28;20223;-64
2021/04/07 03:37:46;;;;;;;7.30;4.78;;;;;;;;;;5093928;28;20199;-63
2021/04/07 03:40:13;;;;;;;9.00;3.03;;;;;;;;;;5093791;28;20196;-64
2021/04/07 03:42:41;;;;;;;5.82;3.35;;;;;;;;;;5093947;28;20207;-63
2021/04/07 03:45:08;;;;;;;24.80;4.30;;;;;;;;;;5094243;28;20220;-63
2021/04/07 03:47:35;;;;;;;6.55;3.28;;;;;;;;;;5093830;28;20202;-63
2021/04/07 03:50:01;;;;;;;9.10;4.55;;;;;;;;;;5093702;28;20227;-64
2021/04/07 03:52:28;;;;;;;8.60;3.25;;;;;;;;;;5093340;28;20202;-63
2021/04/07 03:54:57;;;;;;;10.80;3.70;;;;;;;;;;5093641;28;20226;-63
2021/04/07 03:57:24;;;;;;;9.57;3.97;;;;;;;;;;5093318;28;20200;-63
2021/04/07 03:59:51;;;;;;;7.25;4.00;;;;;;;;;;5093692;28;20200;-63
2021/04/07 04:02:18;;;;;;;8.98;3.97;;;;;;;;;;5093509;28;20204;-63
2021/04/07 04:07:58;;;;;;;9.48;3.45;;;;;;;;;;5111716;27;20540;-63
2021/04/07 04:10:25;;;;;;;7.13;2.65;;;;;;;;;;5111142;28;20199;-63
2021/04/07 04:12:52;;;;;;;10.18;3.80;;;;;;;;;;5111304;28;20203;-62
2021/04/07 04:15:19;;;;;;;5.63;3.50;;;;;;;;;;5111121;28;20229;-63
2021/04/07 04:17:45;;;;;;;10.77;4.25;;;;;;;;;;5111512;28;20256;-62
2021/04/07 04:20:14;;;;;;;5.55;3.45;;;;;;;;;;5111511;28;20200;-63
2021/04/07 04:22:40;;;;;;;5.32;3.28;;;;;;;;;;5111387;28;20199;-63
2021/04/07 04:25:09;;;;;;;5.25;2.97;;;;;;;;;;5111440;28;20233;-63
2021/04/07 04:27:36;;;;;;;6.05;2.63;;;;;;;;;;5111422;28;20223;-62
2021/04/07 04:30:04;;;;;;;18.50;3.50;;;;;;;;;;5111488;28;20207;-63
2021/04/07 04:32:31;;;;;;;9.18;3.60;;;;;;;;;;5111105;28;20203;-63
2021/04/07 04:34:58;;;;;;;10.77;3.95;;;;;;;;;;5111583;28;20219;-63
2021/04/07 04:37:24;;;;;;;7.28;3.25;;;;;;;;;;5113586;28;20203;-63
2021/04/07 04:39:51;;;;;;;14.88;4.00;;;;;;;;;;5114382;28;20203;-64
2021/04/07 04:42:19;;;;;;;11.23;3.53;;;;;;;;;;5115905;28;20199;-63
2021/04/07 04:44:46;;;;;;;7.25;3.30;;;;;;;;;;5115391;28;20707;-62
2021/04/07 04:47:12;;;;;;;6.10;3.80;;;;;;;;;;5116297;28;20215;-63
2021/04/07 04:49:39;;;;;;;5.47;3.85;;;;;;;;;;5119918;28;20210;-62
2021/04/07 04:52:06;;;;;;;9.40;3.75;;;;;;;;;;5115442;28;20198;-62
2021/04/07 04:54:33;;;;;;;6.30;3.45;;;;;;;;;;5113062;28;20640;-63
2021/04/07 04:56:59;;;;;;;13.40;5.10;;;;;;;;;;5110638;28;20576;-61
2021/04/07 04:59:27;;;;;;;5.05;3.80;;;;;;;;;;5111983;28;20248;-61
2021/04/07 05:01:54;;;;;;;5.82;4.13;;;;;;;;;;5110753;28;20204;-60
2021/04/07 05:04:20;;;;;;;12.50;4.45;;;;;;;;;;5110954;28;20248;-61
2021/04/07 05:06:47;;;;;;;10.80;3.90;;;;;;;;;;5110210;28;20601;-59
2021/04/07 05:09:14;;;;;;;7.93;3.25;;;;;;;;;;5110711;28;20204;-60
2021/04/07 05:11:41;;;;;;;5.35;3.30;;;;;;;;;;5110812;28;20205;-60
2021/04/07 05:14:07;;;;;;;8.85;4.40;;;;;;;;;;5117928;28;20223;-61
2021/04/07 05:16:35;;;;;;;11.80;5.30;;;;;;;;;;5117514;28;20275;-62
2021/04/07 05:19:02;;;;;;;10.57;4.70;;;;;;;;;;5098981;28;20201;-61
2021/04/07 05:21:29;;;;;;;6.95;5.30;;;;;;;;;;5096435;28;20196;-62
2021/04/07 05:23:55;;;;;;;5.85;3.67;;;;;;;;;;5096605;28;20211;-62
2021/04/07 05:26:22;;;;;;;9.70;3.60;;;;;;;;;;5096903;28;20223;-60
2021/04/07 05:28:49;;;;;;;9.77;4.00;;;;;;;;;;5096903;28;20223;-61
2021/04/07 05:31:16;;;;;;;10.23;4.45;;;;;;;;;;5096157;28;20210;-60
2021/04/07 05:33:46;;;;;;;9.38;4.10;;;;;;;;;;5096101;28;20200;-62
2021/04/07 05:36:14;;;;;;;9.32;3.50;;;;;;;;;;5095986;28;20223;-61
2021/04/07 05:38:40;;;;;;;8.07;4.28;;;;;;;;;;5096154;28;20207;-60
2021/04/07 05:41:07;;;;;;;6.57;4.45;;;;;;;;;;5096110;28;20211;-60
2021/04/07 05:43:35;;;;;;;13.68;4.60;;;;;;;;;;5096421;28;20199;-61
2021/04/07 05:46:02;;;;;;;7.00;4.03;;;;;;;;;;5095130;28;20307;-61
2021/04/07 05:48:29;;;;;;;12.30;5.38;;;;;;;;;;5095798;28;20204;-61
2021/04/07 05:50:57;;;;;;;10.10;4.82;;;;;;;;;;5095740;28;20196;-61
2021/04/07 05:53:24;;;;;;;9.13;5.15;;;;;;;;;;5096261;28;20275;-61
2021/04/07 05:55:51;;;;;;;8.05;4.28;;;;;;;;;;5095898;28;20730;-61
2021/04/07 05:58:18;;;;;;;9.93;4.55;;;;;;;;;;5095883;28;20196;-61
2021/04/07 06:00:45;;;;;;;6.15;3.75;;;;;;;;;;5101225;28;20203;-60
2021/04/07 06:03:13;;;;;;;8.57;4.40;;;;;;;;;;5102533;28;20199;-60
2021/04/07 06:05:40;;;;;;;5.43;3.47;;;;;;;;;;5097444;28;20220;-61
2021/04/07 06:08:08;;;;;;;7.97;3.67;;;;;;;;;;5095756;28;20242;-60
2021/04/07 06:10:37;;;;;;;9.63;4.13;;;;;;;;;;5095263;28;20245;-62
2021/04/07 06:13:04;;;;;;;12.75;3.65;;;;;;;;;;5094897;28;20258;-61
2021/04/07 06:15:32;;;;;;;5.05;3.55;;;;;;;;;;5094505;28;20250;-60
2021/04/07 06:18:01;;;;;;;9.05;3.45;;;;;;;;;;5095168;28;20203;-60
2021/04/07 06:20:28;;;;;;;5.13;2.65;;;;;;;;;;5094667;28;20200;-60
2021/04/07 06:22:55;;;;;;;8.57;3.53;;;;;;;;;;5095137;28;20197;-61
2021/04/07 06:25:23;;;;;;;7.25;2.80;;;;;;;;;;5094730;28;20225;-61
2021/04/07 06:27:50;;;;;;;7.13;2.97;;;;;;;;;;5094493;28;20221;-61
2021/04/07 06:30:17;;;;;;;8.00;3.38;;;;;;;;;;5094195;28;20200;-61
2021/04/07 06:32:44;;;;;;;3.13;2.38;;;;;;;;;;5095042;28;20627;-65
2021/04/07 06:35:12;;;;;;;13.15;2.90;;;;;;;;;;5095265;28;20228;-65
2021/04/07 06:37:39;;;;;;;6.45;3.50;;;;;;;;;;5094907;28;20249;-61
2021/04/07 06:40:06;;;;;;;7.10;2.95;;;;;;;;;;5094934;28;20605;-63
2021/04/07 06:42:34;;;;;;;3.40;2.47;;;;;;;;;;5095295;28;20590;-63
2021/04/07 06:45:01;;;;;;;8.25;3.78;;;;;;;;;;5094558;28;20231;-64
2021/04/07 06:47:28;;;;;;;6.82;2.95;;;;;;;;;;5094677;28;20695;-62
2021/04/07 06:49:55;;;;;;;4.63;2.70;;;;;;;;;;5095298;28;20207;-65
2021/04/07 06:52:22;;;;;;;7.05;3.22;;;;;;;;;;5095038;28;20201;-62
2021/04/07 06:54:53;;;;;;;4.57;2.35;;;;;;;;;;5094954;28;20220;-63
2021/04/07 06:57:20;;;;;;;7.38;3.90;;;;;;;;;;5095024;28;20226;-62
2021/04/07 06:59:49;;;;;;;2.47;2.20;;;;;;;;;;5094996;28;20570;-63
2021/04/07 07:02:16;;;;;;;7.85;3.35;;;;;;;;;;5095349;28;20261;-62
2021/04/07 07:04:44;;;;;;;9.65;3.42;;;;;;;;;;5094745;28;20694;-63
2021/04/07 07:07:11;;;;;;;4.35;2.75;;;;;;;;;;5095113;28;20221;-63
2021/04/07 07:09:38;;;;;;;3.20;2.90;;;;;;;;;;5094665;28;20219;-62
2021/04/07 07:12:05;;;;;;;3.83;2.90;;;;;;;;;;5093991;28;20646;-64
2021/04/07 07:14:32;;;;;;;7.75;3.05;;;;;;;;;;5094368;28;20732;-62
2021/04/07 07:17:00;;;;;;;5.78;2.78;;;;;;;;;;5094254;28;20207;-64
2021/04/07 07:19:28;;;;;;;7.28;2.80;;;;;;;;;;5095069;28;20200;-64
2021/04/07 07:21:55;;;;;;;3.80;2.60;;;;;;;;;;5093940;28;20201;-63
2021/04/07 07:24:32;;;;;;;4.25;2.55;;;;;;;;;;5093905;28;20609;-62
2021/04/07 07:26:59;;;;;;;2.53;2.25;;;;;;;;;;5094755;28;20267;-64
2021/04/07 07:29:27;;;;;;;9.07;3.00;;;;;;;;;;5093758;28;20278;-64
2021/04/07 07:32:02;;;;;;;8.85;2.60;;;;;;;;;;5094088;28;20622;-63
2021/04/07 07:34:29;;;;;;;9.85;3.80;;;;;;;;;;5094068;28;20270;-61
2021/04/07 07:36:56;;;;;;;5.35;3.35;;;;;;;;;;5094433;28;20576;-62
2021/04/07 07:39:26;;;;;;;3.38;2.30;;;;;;;;;;5094501;28;20214;-62
2021/04/07 07:41:56;;;;;;;8.25;2.80;;;;;;;;;;5094687;28;20215;-64
2021/04/07 07:44:24;;;;;;;3.85;2.40;;;;;;;;;;5093961;28;20314;-62
2021/04/07 07:46:56;;;;;;;5.40;2.60;;;;;;;;;;5093534;28;20222;-62
2021/04/07 07:49:24;;;;;;;4.30;2.60;;;;;;;;;;5093552;28;20195;-63
2021/04/07 07:51:51;;;;;;;5.70;2.83;;;;;;;;;;5094374;28;20218;-61
2021/04/07 07:54:18;;;;;;;5.70;3.40;;;;;;;;;;5092961;28;20647;-61
2021/04/07 07:56:45;;;;;;;5.15;2.53;;;;;;;;;;5094014;28;20201;-62
2021/04/07 07:59:12;;;;;;;3.60;2.65;;;;;;;;;;5093737;28;20204;-61
2021/04/07 08:01:42;;;;;;;3.97;2.42;;;;;;;;;;5093253;28;20203;-62
2021/04/07 08:04:09;;;;;;;6.05;3.00;;;;;;;;;;5092865;28;20206;-62
2021/04/07 08:06:37;;;;;;;7.20;2.70;;;;;;;;;;5093123;28;20227;-61
2021/04/07 08:09:04;;;;;;;5.28;2.35;;;;;;;;;;5093759;28;20208;-62
2021/04/07 08:11:31;;;;;;;6.80;2.90;;;;;;;;;;5093343;28;20295;-62
2021/04/07 08:14:00;;;;;;;6.93;3.38;;;;;;;;;;5093021;28;20589;-62
2021/04/07 08:16:28;;;;;;;3.60;2.20;;;;;;;;;;5093621;28;20193;-62
2021/04/07 08:18:54;;;;;;;2.85;2.53;;;;;;;;;;5094090;28;20208;-61
2021/04/07 08:21:23;;;;;;;3.65;2.50;;;;;;;;;;5094751;28;20685;-62
2021/04/07 08:23:54;;;;;;;4.82;2.40;;;;;;;;;;5094755;28;20200;-62
2021/04/07 08:26:21;;;;;;;18.65;3.03;;;;;;;;;;5094460;28;20609;-62
2021/04/07 08:28:48;;;;;;;6.30;3.20;;;;;;;;;;5094022;28;20574;-63
2021/04/07 08:31:17;;;;;;;6.10;2.10;;;;;;;;;;5093951;28;20200;-63
2021/04/07 08:33:46;;;;;;;2.72;1.90;;;;;;;;;;5094371;28;20204;-64
2021/04/07 08:36:13;;;;;;;2.75;2.20;;;;;;;;;;5094195;28;20316;-62
2021/04/07 08:38:39;;;;;;;4.18;2.75;;;;;;;;;;5094063;28;20212;-62
2021/04/07 08:41:11;;;;;;;4.40;2.70;;;;;;;;;;5095353;28;20726;-62
2021/04/07 08:43:38;;;;;;;4.65;2.17;;;;;;;;;;5093799;28;20295;-62
2021/04/07 08:46:12;;;;;;;3.70;2.20;;;;;;;;;;5094431;28;20219;-63
2021/04/07 08:48:39;;;;;;;3.53;2.90;;;;;;;;;;5095375;28;20195;-63
2021/04/07 08:51:06;;;;;;;4.82;2.70;;;;;;;;;;5094603;28;20203;-62
2021/04/07 08:53:34;;;;;;;2.53;2.20;;;;;;;;;;5096634;28;20232;-62
2021/04/07 08:56:06;;;;;;;3.88;2.20;;;;;;;;;;5098797;28;20251;-62
2021/04/07 08:58:33;;;;;;;3.95;2.92;;;;;;;;;;5097655;28;20671;-61
2021/04/07 09:01:00;;;;;;;4.70;2.60;;;;;;;;;;5100681;28;20273;-62
2021/04/07 09:03:29;;;;;;;2.67;2.47;;;;;;;;;;5103713;28;20231;-63
2021/04/07 09:05:55;;;;;;;10.55;3.33;;;;;;;;;;5104030;28;20323;-61
2021/04/07 09:08:23;;;;;;;4.45;3.47;;;;;;;;;;5106943;28;20180;-62
2021/04/07 09:10:50;;;;;;;3.90;2.80;;;;;;;;;;5107754;28;20204;-61
2021/04/07 09:13:18;;;;;;;3.38;3.08;;;;;;;;;;5107163;28;20208;-61
2021/04/07 09:15:50;;;;;;;5.72;3.40;;;;;;;;;;5108092;28;20224;-62
2021/04/07 09:18:17;;;;;;;4.45;4.00;;;;;;;;;;5104683;28;20245;-62
2021/04/07 09:20:45;;;;;;;5.25;3.55;;;;;;;;;;5106337;28;20211;-61
2021/04/07 09:23:13;;;;;;;6.25;3.78;;;;;;;;;;5103239;28;20203;-62
2021/04/07 09:25:45;;;;;;;7.28;3.92;;;;;;;;;;5102428;28;20228;-62
2021/04/07 09:28:12;;;;;;;5.72;3.65;;;;;;;;;;5103127;28;20200;-61
2021/04/07 09:30:42;;;;;;;7.10;4.97;;;;;;;;;;5102277;28;20200;-62
2021/04/07 09:33:11;;;;;;;5.30;4.00;;;;;;;;;;5102364;28;20654;-62
2021/04/07 09:35:38;;;;;;;6.47;4.30;;;;;;;;;;5100501;28;20220;-62
2021/04/07 09:38:05;;;;;;;5.78;4.00;;;;;;;;;;5101348;28;20206;-62
2021/04/07 09:40:32;;;;;;;4.45;4.05;;;;;;;;;;5102255;28;20222;-62
2021/04/07 09:42:59;;;;;;;5.80;4.35;;;;;;;;;;5105539;28;20687;-61
2021/04/07 09:45:27;;;;;;;5.50;4.78;;;;;;;;;;5098890;28;20246;-63
2021/04/07 09:47:54;;;;;;;5.10;4.55;;;;;;;;;;5102330;28;20649;-61
2021/04/07 09:50:22;;;;;;;8.27;5.82;;;;;;;;;;5102368;28;20211;-61
2021/04/07 09:52:49;;;;;;;7.38;6.53;;;;;;;;;;5102417;28;20245;-60
2021/04/07 09:55:22;;;;;;;7.13;6.50;;;;;;;;;;5100572;28;20590;-62
2021/04/07 09:58:00;;;;;;;8.23;7.43;;;;;;;;;;5098101;28;20202;-62
2021/04/07 10:00:30;;;;;;;8.43;7.03;;;;;;;;;;5096460;28;20204;-63
2021/04/07 10:02:57;;;;;;;8.07;6.68;;;;;;;;;;5096209;28;20746;-62
2021/04/07 10:05:32;;;;;;;7.80;6.50;;;;;;;;;;5095639;28;20223;-62
2021/04/07 10:08:13;;;;;;;9.75;7.47;;;;;;;;;;5096769;28;20256;-62
2021/04/07 10:10:39;;;;;;;9.55;8.18;;;;;;;;;;5097144;28;20192;-61
2021/04/07 10:13:07;;;;;;;9.73;8.27;;;;;;;;;;5096486;28;20209;-63
2021/04/07 10:15:33;;;;;;;8.60;7.70;;;;;;;;;;5096013;28;20265;-63
2021/04/07 10:18:06;;;;;;;8.63;7.03;;;;;;;;;;5095096;28;20200;-63
2021/04/07 10:20:34;;;;;;;8.50;7.28;;;;;;;;;;5096027;28;20180;-63
2021/04/07 10:23:07;;;;;;;8.82;7.95;;;;;;;;;;5095632;28;20201;-61
2021/04/07 10:25:34;;;;;;;9.18;8.27;;;;;;;;;;5094918;28;20227;-62
2021/04/07 10:28:00;;;;;;;10.43;7.70;;;;;;;;;;5096265;28;20223;-63
2021/04/07 10:30:35;;;;;;;8.55;7.60;;;;;;;;;;5096277;28;20211;-62
2021/04/07 10:33:02;;;;;;;9.18;8.27;;;;;;;;;;5096877;28;20267;-62
2021/04/07 10:35:31;;;;;;;9.65;8.43;;;;;;;;;;5096411;28;20319;-63
2021/04/07 10:38:01;;;;;;;9.32;8.40;;;;;;;;;;5095298;28;20573;-62
2021/04/07 10:40:29;;;;;;;11.77;8.88;;;;;;;;;;5094853;28;20668;-61
2021/04/07 10:42:56;;;;;;;10.45;9.10;;;;;;;;;;5096430;28;20573;-61
2021/04/07 10:45:24;;;;;;;10.68;8.35;;;;;;;;;;5094930;28;20231;-62
2021/04/07 10:47:51;;;;;;;11.20;10.02;;;;;;;;;;5095132;28;20367;-60
2021/04/07 10:50:18;;;;;;;10.77;9.27;;;;;;;;;;5094753;28;20200;-64
2021/04/07 10:52:46;;;;;;;9.20;8.20;;;;;;;;;;5095117;28;20204;-62
2021/04/07 10:55:14;;;;;;;9.25;7.40;;;;;;;;;;5097153;28;20220;-63
2021/04/07 10:57:45;;;;;;;14.93;9.15;;;;;;;;;;5096413;28;20192;-62
2021/04/07 11:00:14;;;;;;;8.98;8.13;;;;;;;;;;5095778;28;20185;-63
2021/04/07 11:02:42;;;;;;;6.15;5.60;;;;;;;;;;5094835;28;20196;-63
2021/04/07 11:05:17;;;;;;;7.15;6.45;;;;;;;;;;5095641;28;20219;-63
2021/04/07 11:07:44;;;;;;;7.00;6.30;;;;;;;;;;5094967;28;20314;-63
2021/04/07 11:10:11;;;;;;;7.55;6.30;;;;;;;;;;5096171;28;20211;-62
2021/04/07 11:12:39;;;;;;;7.38;6.45;;;;;;;;;;5095745;28;20625;-61
2021/04/07 11:15:08;;;;;;;7.93;7.13;;;;;;;;;;5095292;28;20223;-63
2021/04/07 11:17:35;;;;;;;6.97;6.28;;;;;;;;;;5095306;28;20203;-63
2021/04/07 11:20:02;;;;;;;6.43;5.82;;;;;;;;;;5097528;28;20239;-63
2021/04/07 11:22:29;;;;;;;7.75;5.60;;;;;;;;;;5096491;28;20199;-63
2021/04/07 11:24:56;;;;;;;6.70;6.00;;;;;;;;;;5096290;28;20224;-62
2021/04/07 11:27:23;;;;;;;8.30;5.30;;;;;;;;;;5095887;28;20585;-62
2021/04/07 11:29:51;;;;;;;6.60;5.90;;;;;;;;;;5096559;28;20200;-63
2021/04/07 11:32:17;;;;;;;6.60;5.95;;;;;;;;;;5095729;28;20204;-62
2021/04/07 11:34:51;;;;;;;7.10;6.40;;;;;;;;;;5095424;28;20284;-62
2021/04/07 11:37:29;;;;;;;6.50;5.50;;;;;;;;;;5095302;28;20627;-62
2021/04/07 11:39:59;;;;;;;7.55;6.85;;;;;;;;;;5095630;28;20234;-62
2021/04/07 11:42:28;;;;;;;7.35;6.10;;;;;;;;;;5096119;28;20325;-62
2021/04/07 11:44:58;;;;;;;6.40;5.80;;;;;;;;;;5095555;28;20230;-64
2021/04/07 11:47:24;;;;;;;6.03;5.47;;;;;;;;;;5095073;28;20591;-64
2021/04/07 11:49:52;;;;;;;5.90;5.30;;;;;;;;;;5095264;28;20204;-64
2021/04/07 11:52:19;;;;;;;6.68;4.68;;;;;;;;;;5094525;28;20204;-63
2021/04/07 11:54:46;;;;;;;6.97;4.38;;;;;;;;;;5094694;28;20224;-63
2021/04/07 11:57:13;;;;;;;4.15;3.75;;;;;;;;;;5094494;28;20239;-64
2021/04/07 11:59:39;;;;;;;4.10;3.67;;;;;;;;;;5094752;28;20307;-63
2021/04/07 12:02:07;;;;;;;4.45;3.78;;;;;;;;;;5095562;28;20667;-63
2021/04/07 12:04:34;;;;;;;3.63;2.78;;;;;;;;;;5095725;28;20707;-62
2021/04/07 12:07:02;;;;;;;3.80;3.20;;;;;;;;;;5095505;28;20736;-63
2021/04/07 12:09:28;;;;;;;3.65;3.35;;;;;;;;;;5095750;28;20196;-62
2021/04/07 12:11:55;;;;;;;4.78;3.63;;;;;;;;;;5094688;28;20287;-63
2021/04/07 12:14:22;;;;;;;4.88;3.75;;;;;;;;;;5094204;28;20270;-62
2021/04/07 12:16:49;;;;;;;4.57;3.50;;;;;;;;;;5094175;28;20660;-63
2021/04/07 12:19:18;;;;;;;3.67;3.33;;;;;;;;;;5093908;28;20196;-61
2021/04/07 12:21:45;;;;;;;4.88;3.65;;;;;;;;;;5094156;28;20207;-62
2021/04/07 12:24:12;;;;;;;3.80;3.00;;;;;;;;;;5094892;28;20245;-62
2021/04/07 12:26:38;;;;;;;4.55;3.67;;;;;;;;;;5093911;28;20632;-63
2021/04/07 12:29:05;;;;;;;3.95;3.50;;;;;;;;;;5096880;28;20229;-63
2021/04/07 12:31:32;;;;;;;5.63;3.95;;;;;;;;;;5097862;28;20200;-61
2021/04/07 12:33:59;;;;;;;5.20;3.88;;;;;;;;;;5097577;28;20207;-61
2021/04/07 12:36:27;;;;;;;4.25;3.53;;;;;;;;;;5098084;28;20238;-62
2021/04/07 12:38:56;;;;;;;7.43;4.43;;;;;;;;;;5097745;28;20672;-62
2021/04/07 12:41:24;;;;;;;6.07;3.80;;;;;;;;;;5097292;28;20224;-62
2021/04/07 12:43:51;;;;;;;5.70;3.63;;;;;;;;;;5097707;28;20557;-61
2021/04/07 12:46:18;;;;;;;6.60;4.28;;;;;;;;;;5097754;28;20227;-63
2021/04/07 12:48:47;;;;;;;6.57;4.00;;;;;;;;;;5097916;28;20538;-62
2021/04/07 12:51:14;;;;;;;6.28;4.82;;;;;;;;;;5097052;28;20282;-63
2021/04/07 12:53:42;;;;;;;3.80;3.50;;;;;;;;;;5097037;28;20211;-63
2021/04/07 12:56:10;;;;;;;8.70;4.03;;;;;;;;;;5097256;28;20242;-63
2021/04/07 12:58:37;;;;;;;6.25;4.28;;;;;;;;;;5097509;28;20683;-64
2021/04/07 13:01:04;;;;;;;4.28;3.35;;;;;;;;;;5097605;28;20259;-63
2021/04/07 13:03:30;;;;;;;3.83;3.45;;;;;;;;;;5097170;28;20667;-63
2021/04/07 13:05:57;;;;;;;9.60;3.90;;;;;;;;;;5096656;28;20224;-62
2021/04/07 13:08:24;;;;;;;4.82;3.80;;;;;;;;;;5096599;28;20680;-63
2021/04/07 13:10:51;;;;;;;4.82;4.03;;;;;;;;;;5096143;28;20204;-63
2021/04/07 13:13:18;;;;;;;6.78;4.28;;;;;;;;;;5096859;28;20257;-62
2021/04/07 13:15:45;;;;;;;4.85;3.80;;;;;;;;;;5096368;28;20307;-63
2021/04/07 13:18:12;;;;;;;4.80;3.90;;;;;;;;;;5096781;28;20553;-63
2021/04/07 13:20:38;;;;;;;6.28;3.97;;;;;;;;;;5096600;28;20273;-63
2021/04/07 13:23:05;;;;;;;3.80;3.38;;;;;;;;;;5096212;28;20668;-62
2021/04/07 13:25:32;;;;;;;5.82;4.10;;;;;;;;;;5096967;28;20243;-63
2021/04/07 13:27:59;;;;;;;6.57;4.03;;;;;;;;;;5095960;28;20219;-62
2021/04/07 13:30:31;;;;;;;5.40;4.05;;;;;;;;;;5096011;28;20269;-63
2021/04/07 13:33:06;;;;;;;4.25;3.38;;;;;;;;;;5096272;28;20199;-61
2021/04/07 13:35:38;;;;;;;4.47;3.50;;;;;;;;;;5097281;28;20254;-62
2021/04/07 13:38:12;;;;;;;5.00;3.42;;;;;;;;;;5096261;28;20314;-61
2021/04/07 13:40:53;;;;;;;3.45;3.15;;;;;;;;;;5096032;28;20219;-62
2021/04/07 13:43:20;;;;;;;4.53;3.22;;;;;;;;;;5096051;28;20188;-63
2021/04/07 13:45:47;;;;;;;4.28;3.40;;;;;;;;;;5096858;28;20224;-62
2021/04/07 13:48:15;;;;;;;5.38;3.35;;;;;;;;;;5099252;28;20227;-62
2021/04/07 13:50:43;;;;;;;4.10;2.80;;;;;;;;;;5099286;28;20196;-62
2021/04/07 13:53:10;;;;;;;3.67;2.95;;;;;;;;;;5098739;28;20200;-62
2021/04/07 13:55:39;;;;;;;4.55;2.35;;;;;;;;;;5097543;28;20731;-62
2021/04/07 13:58:06;;;;;;;4.45;2.83;;;;;;;;;;5098289;28;20330;-63
2021/04/07 14:00:34;;;;;;;6.40;3.13;;;;;;;;;;5098292;28;20200;-62
2021/04/07 14:03:01;;;;;;;5.88;1.95;;;;;;;;;;5099370;28;20288;-63
2021/04/07 14:05:28;;;;;;;3.00;2.50;;;;;;;;;;5098068;28;20297;-62
2021/04/07 14:07:56;;;;;;;2.97;1.55;;;;;;;;;;5097767;28;20228;-63
2021/04/07 14:10:24;;;;;;;2.55;1.55;;;;;;;;;;5097213;28;20203;-64
2021/04/07 14:12:53;;;;;;;1.75;1.55;;;;;;;;;;5099835;28;20230;-65
2021/04/07 14:15:20;;;;;;;6.38;2.17;;;;;;;;;;5099652;28;20361;-62
2021/04/07 14:17:48;;;;;;;4.10;1.30;;;;;;;;;;5097436;28;20196;-63
2021/04/07 14:20:15;;;;;;;2.97;1.20;;;;;;;;;;5096669;28;20204;-63
2021/04/07 14:22:42;;;;;;;3.05;1.00;;;;;;;;;;5097241;28;20200;-62
2021/04/07 14:25:10;;;;;;;2.95;1.30;;;;;;;;;;5098630;28;20224;-63
2021/04/07 14:27:37;;;;;;;3.60;1.25;;;;;;;;;;5095975;28;20274;-63
2021/04/07 14:30:05;;;;;;;3.15;1.45;;;;;;;;;;5096058;28;20219;-62
2021/04/07 14:32:32;;;;;;;4.55;1.50;;;;;;;;;;5095623;28;20226;-63
2021/04/07 14:34:59;;;;;;;5.53;1.40;;;;;;;;;;5095120;28;20226;-63
2021/04/07 14:37:26;;;;;;;3.67;1.60;;;;;;;;;;5096221;28;20200;-64
2021/04/07 14:39:53;;;;;;;2.28;1.27;;;;;;;;;;5095213;28;20258;-62
2021/04/07 14:42:21;;;;;;;3.97;1.80;;;;;;;;;;5093826;28;20204;-63
2021/04/07 14:44:48;;;;;;;3.75;1.85;;;;;;;;;;5095367;28;20220;-62
2021/04/07 14:47:15;;;;;;;6.43;1.85;;;;;;;;;;5095571;28;20216;-64